Time;durP1;ratioP1;P1;durP2;ratioP2;P2;SDS_P1;SDS_P2;PMS_P1;PMS_P2;Temp;Humidity;BMP_temperature;BMP_pressure;BME280_temperature;BME280_humidity;BME280_pressure;Samples;Min_cycle;Max_cycle;Signal;HPM_P1;HPM_P2
2020/12/12 00:01:49;;;;;;;12.13;7.05;;;11.00;99.90;;;;;;4802707;29;20406;-77
2020/12/12 00:04:16;;;;;;;15.45;7.25;;;11.00;99.90;;;;;;4803890;29;20505;-78
2020/12/12 00:06:42;;;;;;;16.55;8.05;;;11.00;99.90;;;;;;4803882;29;20430;-77
2020/12/12 00:09:08;;;;;;;14.43;7.60;;;11.00;99.90;;;;;;4803705;29;20046;-80
2020/12/12 00:11:34;;;;;;;16.52;8.18;;;11.10;99.90;;;;;;4803931;29;20482;-77
2020/12/12 00:14:00;;;;;;;17.63;7.93;;;11.10;99.90;;;;;;4791737;29;20060;-77
2020/12/12 00:16:26;;;;;;;17.65;8.40;;;11.10;99.90;;;;;;4803659;29;20038;-78
2020/12/12 00:18:52;;;;;;;18.52;7.47;;;11.10;99.90;;;;;;4794390;29;20089;-77
2020/12/12 00:21:21;;;;;;;14.00;8.73;;;11.10;99.90;;;;;;4785825;29;20039;-78
2020/12/12 00:23:48;;;;;;;14.15;7.00;;;11.20;99.90;;;;;;4786213;29;20027;-79
2020/12/12 00:26:18;;;;;;;12.45;6.68;;;11.20;99.90;;;;;;4785676;29;20094;-78
2020/12/12 00:28:44;;;;;;;11.13;6.75;;;11.20;99.90;;;;;;4769235;30;20457;-77
2020/12/12 00:31:10;;;;;;;13.85;6.88;;;11.20;99.90;;;;;;4769785;29;20372;-78
2020/12/12 00:33:36;;;;;;;11.88;6.00;;;11.20;99.90;;;;;;4795203;29;20030;-78
2020/12/12 00:36:02;;;;;;;11.65;6.30;;;11.20;99.90;;;;;;4786047;29;20459;-78
2020/12/12 00:38:29;;;;;;;7.32;4.47;;;11.10;99.90;;;;;;4803335;29;20192;-81
2020/12/12 00:40:58;;;;;;;9.18;5.32;;;11.10;99.90;;;;;;4803139;29;20034;-78
2020/12/12 00:43:25;;;;;;;12.68;6.40;;;11.00;99.90;;;;;;4797014;29;20104;-79
2020/12/12 00:45:51;;;;;;;10.25;5.65;;;11.00;99.90;;;;;;4785347;30;20040;-79
2020/12/12 00:48:17;;;;;;;21.38;6.82;;;10.90;99.90;;;;;;4791050;29;20045;-77
2020/12/12 00:50:48;;;;;;;14.15;6.85;;;10.80;99.90;;;;;;4785477;30;20409;-78
2020/12/12 00:53:15;;;;;;;16.48;7.55;;;10.80;99.90;;;;;;4785475;29;20514;-78
2020/12/12 00:55:42;;;;;;;15.20;7.60;;;10.80;99.90;;;;;;4785006;30;20110;-80
2020/12/12 00:58:08;;;;;;;15.85;7.38;;;10.80;99.90;;;;;;4768808;29;20039;-77
2020/12/12 01:00:35;;;;;;;11.20;6.22;;;10.80;99.90;;;;;;4785408;29;20035;-78
2020/12/12 01:03:02;;;;;;;21.25;8.00;;;10.80;99.90;;;;;;4784858;29;20038;-77
2020/12/12 01:05:31;;;;;;;10.45;5.60;;;10.80;99.90;;;;;;4800394;29;20371;-80
2020/12/12 01:07:58;;;;;;;10.45;5.25;;;10.70;99.90;;;;;;4802848;29;20034;-78
2020/12/12 01:10:25;;;;;;;14.77;6.38;;;10.60;99.90;;;;;;4802567;29;20031;-76
2020/12/12 01:12:52;;;;;;;11.07;5.70;;;10.40;99.90;;;;;;4802741;29;20057;-79
2020/12/12 01:15:19;;;;;;;10.85;5.63;;;10.20;99.90;;;;;;4802045;29;20398;-78
2020/12/12 01:17:45;;;;;;;13.85;6.75;;;10.00;99.90;;;;;;4802690;29;20058;-79
2020/12/12 01:20:12;;;;;;;12.20;5.45;;;9.90;99.90;;;;;;4802464;29;20026;-77
2020/12/12 01:22:38;;;;;;;10.55;6.35;;;9.90;99.90;;;;;;4802702;29;20039;-78
2020/12/12 01:25:05;;;;;;;13.73;6.93;;;9.80;99.90;;;;;;4778288;29;20111;-76
2020/12/12 01:27:31;;;;;;;12.15;6.15;;;9.70;99.90;;;;;;4784566;29;20031;-77
2020/12/12 01:29:57;;;;;;;10.68;5.95;;;9.70;99.90;;;;;;4784705;30;20039;-79
2020/12/12 01:32:23;;;;;;;15.48;7.32;;;9.80;99.90;;;;;;4784325;29;20031;-77
2020/12/12 01:34:49;;;;;;;14.18;6.57;;;9.90;99.90;;;;;;4789039;29;20125;-77
2020/12/12 01:37:15;;;;;;;11.50;6.13;;;10.00;99.90;;;;;;4802141;29;20172;-80
2020/12/12 01:39:41;;;;;;;12.25;6.25;;;10.00;99.90;;;;;;4802363;29;20110;-77
2020/12/12 01:42:08;;;;;;;12.35;6.03;;;10.00;99.90;;;;;;4802221;29;20137;-76
2020/12/12 01:44:34;;;;;;;16.13;8.07;;;10.00;99.90;;;;;;4802259;29;20418;-76
2020/12/12 01:47:00;;;;;;;15.07;7.13;;;9.90;99.90;;;;;;4784757;29;20040;-80
2020/12/12 01:49:27;;;;;;;14.50;7.45;;;9.90;99.90;;;;;;4784146;29;20027;-77
2020/12/12 01:51:54;;;;;;;12.85;6.47;;;9.80;99.90;;;;;;4784330;29;20027;-76
2020/12/12 01:54:21;;;;;;;13.65;6.07;;;9.80;99.90;;;;;;4784059;29;20038;-76
2020/12/12 01:56:51;;;;;;;9.45;5.80;;;9.80;99.90;;;;;;4796525;29;20051;-76
2020/12/12 01:59:17;;;;;;;7.65;5.18;;;9.80;99.90;;;;;;4802023;29;20465;-76
2020/12/12 02:01:47;;;;;;;8.32;5.30;;;9.80;99.90;;;;;;4802295;29;20031;-76
2020/12/12 02:04:22;;;;;;;8.10;4.38;;;9.90;99.90;;;;;;4802069;29;20038;-77
2020/12/12 02:06:48;;;;;;;9.77;5.18;;;10.00;99.90;;;;;;4791499;29;20043;-77
2020/12/12 02:09:14;;;;;;;9.27;5.20;;;10.00;99.90;;;;;;4783851;29;20509;-76
2020/12/12 02:11:41;;;;;;;12.95;5.47;;;10.10;99.90;;;;;;4784176;29;20030;-77
2020/12/12 02:14:09;;;;;;;8.85;5.18;;;10.10;99.90;;;;;;4783727;29;20051;-77
2020/12/12 02:16:57;;;;;;;5.75;4.30;;;10.10;99.90;;;;;;4789554;29;20081;-77
2020/12/12 02:19:23;;;;;;;7.60;4.25;;;10.20;99.90;;;;;;4801689;29;20183;-77
2020/12/12 02:21:57;;;;;;;7.82;4.53;;;10.30;99.90;;;;;;4801735;29;20128;-77
2020/12/12 02:24:25;;;;;;;9.80;5.22;;;10.20;99.90;;;;;;4801511;29;20466;-76
2020/12/12 02:26:52;;;;;;;6.82;3.78;;;10.10;99.90;;;;;;4801180;29;20474;-77
2020/12/12 02:29:19;;;;;;;6.65;3.85;;;10.00;99.90;;;;;;4799958;29;20080;-77
2020/12/12 02:31:45;;;;;;;6.75;4.22;;;10.00;99.90;;;;;;4801761;29;20038;-77
2020/12/12 02:34:11;;;;;;;8.75;4.68;;;9.90;99.90;;;;;;4801425;29;20504;-76
2020/12/12 02:36:39;;;;;;;12.25;5.45;;;9.90;99.90;;;;;;4800504;29;20039;-80
2020/12/12 02:39:08;;;;;;;8.43;4.57;;;9.90;99.90;;;;;;4783664;29;20032;-76
2020/12/12 02:41:35;;;;;;;8.13;4.88;;;9.90;99.90;;;;;;4783905;30;20100;-76
2020/12/12 02:44:02;;;;;;;8.52;4.45;;;9.80;99.90;;;;;;4783351;29;20051;-75
2020/12/12 02:46:28;;;;;;;12.50;4.75;;;9.80;99.90;;;;;;4767478;29;20039;-77
2020/12/12 02:48:54;;;;;;;7.72;4.30;;;9.80;99.90;;;;;;4798551;29;20184;-77
2020/12/12 02:51:21;;;;;;;8.23;4.55;;;9.80;99.90;;;;;;4800661;29;20035;-77
2020/12/12 02:54:23;;;;;;;5.97;4.05;;;9.80;99.90;;;;;;4801370;29;20403;-77
2020/12/12 02:56:49;;;;;;;6.07;3.92;;;9.80;99.90;;;;;;4801251;29;20039;-77
2020/12/12 02:59:15;;;;;;;6.07;4.30;;;9.80;99.90;;;;;;4803939;29;20030;-78
2020/12/12 03:01:42;;;;;;;5.82;4.00;;;9.80;99.90;;;;;;4804718;29;20037;-78
2020/12/12 03:04:11;;;;;;;5.75;4.07;;;9.90;99.90;;;;;;4804977;29;20110;-76
2020/12/12 03:06:43;;;;;;;7.65;3.75;;;9.90;99.90;;;;;;4804520;29;20045;-77
2020/12/12 03:09:10;;;;;;;7.35;4.13;;;9.70;99.90;;;;;;4805017;29;20436;-77
2020/12/12 03:11:38;;;;;;;5.53;3.70;;;9.70;99.90;;;;;;4804261;29;20648;-80
2020/12/12 03:14:04;;;;;;;5.10;2.88;;;9.60;99.90;;;;;;4804769;29;20097;-76
2020/12/12 03:16:30;;;;;;;7.22;3.60;;;9.60;99.90;;;;;;4804676;29;20050;-77
2020/12/12 03:18:56;;;;;;;8.30;3.00;;;9.50;99.90;;;;;;4804844;29;20114;-76
2020/12/12 03:21:22;;;;;;;6.85;2.85;;;9.50;99.90;;;;;;4802820;29;20115;-80
2020/12/12 03:23:48;;;;;;;6.03;2.92;;;9.50;99.90;;;;;;4786598;29;20117;-77
2020/12/12 03:26:14;;;;;;;8.35;3.03;;;9.50;99.90;;;;;;4786463;29;20023;-78
2020/12/12 03:28:42;;;;;;;9.15;3.00;;;9.50;99.90;;;;;;4786563;30;20039;-76
2020/12/12 03:31:08;;;;;;;7.57;3.05;;;9.50;99.90;;;;;;4787342;29;20031;-78
2020/12/12 03:33:34;;;;;;;5.07;2.65;;;9.50;99.90;;;;;;4801030;29;20034;-76
2020/12/12 03:36:02;;;;;;;4.68;2.88;;;9.50;99.90;;;;;;4788242;29;20122;-76
2020/12/12 03:38:28;;;;;;;5.50;2.90;;;9.50;99.90;;;;;;4787990;29;20046;-76
2020/12/12 03:40:55;;;;;;;10.10;3.33;;;9.50;99.90;;;;;;4804566;29;20026;-76
2020/12/12 03:43:23;;;;;;;6.10;3.15;;;9.50;99.90;;;;;;4803594;29;20096;-77
2020/12/12 03:45:50;;;;;;;9.52;4.10;;;9.50;99.90;;;;;;4804320;29;20034;-76
2020/12/12 03:48:16;;;;;;;6.50;3.30;;;9.50;99.90;;;;;;4788334;29;20031;-76
2020/12/12 03:50:44;;;;;;;10.32;3.70;;;9.50;99.90;;;;;;4804211;29;20031;-77
2020/12/12 03:53:12;;;;;;;8.98;3.70;;;9.50;99.90;;;;;;4803448;29;20083;-76
2020/12/12 03:55:38;;;;;;;8.95;3.63;;;9.50;99.90;;;;;;4804079;29;20515;-76
2020/12/12 03:58:04;;;;;;;11.20;4.38;;;9.50;99.90;;;;;;4803840;29;20113;-76
2020/12/12 04:00:31;;;;;;;10.73;4.43;;;9.40;99.90;;;;;;4803955;29;20031;-77
2020/12/12 04:02:57;;;;;;;7.68;3.50;;;9.40;99.90;;;;;;4803241;29;20027;-76
2020/12/12 04:05:23;;;;;;;7.03;3.50;;;9.30;99.90;;;;;;4803844;29;20095;-75
2020/12/12 04:07:49;;;;;;;9.27;3.67;;;9.30;99.90;;;;;;4804290;29;20031;-76
2020/12/12 04:10:16;;;;;;;7.22;4.00;;;9.30;99.90;;;;;;4803385;29;20035;-76
2020/12/12 04:12:42;;;;;;;10.27;4.05;;;9.40;99.90;;;;;;4788046;29;20065;-76
2020/12/12 04:15:10;;;;;;;8.07;3.58;;;9.30;99.90;;;;;;4789497;29;20043;-76
2020/12/12 04:17:36;;;;;;;9.18;4.10;;;9.30;99.90;;;;;;4785837;29;20447;-76
2020/12/12 04:20:02;;;;;;;6.22;3.65;;;9.20;99.90;;;;;;4769591;30;20114;-76
2020/12/12 04:22:29;;;;;;;5.43;3.55;;;9.20;99.90;;;;;;4769754;29;20049;-77
2020/12/12 04:24:55;;;;;;;7.38;3.65;;;9.20;99.90;;;;;;4781905;29;20031;-76
2020/12/12 04:27:22;;;;;;;10.63;4.15;;;9.10;99.90;;;;;;4803434;29;20031;-76
2020/12/12 04:29:48;;;;;;;10.43;4.35;;;9.10;99.90;;;;;;4803732;29;20078;-76
2020/12/12 04:32:14;;;;;;;9.95;3.85;;;9.10;99.90;;;;;;4803662;29;20450;-75
2020/12/12 04:34:40;;;;;;;6.65;3.58;;;9.20;99.90;;;;;;4795146;29;20065;-80
2020/12/12 04:37:06;;;;;;;5.43;3.40;;;9.20;99.90;;;;;;4796130;29;20079;-76
2020/12/12 04:39:32;;;;;;;11.32;4.22;;;9.30;99.90;;;;;;4785526;29;20066;-76
2020/12/12 04:41:59;;;;;;;9.05;4.22;;;9.30;99.90;;;;;;4785313;29;20032;-76
2020/12/12 04:44:26;;;;;;;8.43;4.18;;;9.40;99.90;;;;;;4788030;29;20046;-77
2020/12/12 04:46:54;;;;;;;7.60;3.92;;;9.40;99.90;;;;;;4794395;29;20031;-76
2020/12/12 04:49:21;;;;;;;12.43;4.25;;;9.50;99.90;;;;;;4803192;29;20074;-76
2020/12/12 04:51:48;;;;;;;7.00;3.92;;;9.60;99.90;;;;;;4803360;29;20505;-76
2020/12/12 04:54:19;;;;;;;10.40;4.63;;;9.60;99.90;;;;;;4792487;29;20116;-76
2020/12/12 04:56:47;;;;;;;8.65;3.75;;;9.60;99.90;;;;;;4790503;29;20109;-77
2020/12/12 04:59:14;;;;;;;6.57;3.70;;;9.70;99.90;;;;;;4800987;29;20027;-78
2020/12/12 05:01:40;;;;;;;8.27;3.17;;;9.70;99.90;;;;;;4802402;29;20034;-76
2020/12/12 05:04:07;;;;;;;5.85;2.90;;;9.70;99.90;;;;;;4802547;29;20022;-77
2020/12/12 05:06:34;;;;;;;8.38;3.83;;;9.60;99.90;;;;;;4788173;29;20073;-77
2020/12/12 05:09:00;;;;;;;6.40;3.40;;;9.40;99.90;;;;;;4784477;29;20494;-81
2020/12/12 05:11:26;;;;;;;8.38;3.80;;;9.50;99.90;;;;;;4795241;29;20121;-76
2020/12/12 05:13:53;;;;;;;7.10;3.45;;;9.50;99.90;;;;;;4802072;29;20099;-76
2020/12/12 05:16:20;;;;;;;10.07;4.18;;;9.60;99.90;;;;;;4793188;29;20114;-79
2020/12/12 05:18:46;;;;;;;6.50;3.90;;;9.60;99.90;;;;;;4785398;29;20031;-77
2020/12/12 05:21:12;;;;;;;12.70;3.95;;;9.70;99.90;;;;;;4784454;29;20061;-76
2020/12/12 05:23:39;;;;;;;9.98;4.32;;;9.70;99.90;;;;;;4785210;29;20039;-77
2020/12/12 05:26:05;;;;;;;7.20;3.75;;;9.80;99.90;;;;;;4790088;29;20659;-76
2020/12/12 05:28:32;;;;;;;11.85;4.40;;;9.80;99.90;;;;;;4803020;29;20091;-76
2020/12/12 05:30:58;;;;;;;8.45;3.63;;;9.80;99.90;;;;;;4802845;29;20027;-77
2020/12/12 05:33:25;;;;;;;7.38;3.70;;;9.80;99.90;;;;;;4802938;29;20034;-78
2020/12/12 05:35:52;;;;;;;6.72;3.17;;;9.80;99.90;;;;;;4799621;29;20138;-76
2020/12/12 05:38:18;;;;;;;5.13;3.38;;;9.80;99.90;;;;;;4802239;29;20289;-76
2020/12/12 05:40:52;;;;;;;9.77;3.63;;;9.80;99.90;;;;;;4802755;29;20023;-77
2020/12/12 05:43:18;;;;;;;6.90;4.03;;;9.80;99.90;;;;;;4802307;29;20051;-81
2020/12/12 05:45:45;;;;;;;6.47;3.63;;;9.80;99.90;;;;;;4802604;29;20054;-81
2020/12/12 05:48:14;;;;;;;9.57;4.82;;;9.80;99.90;;;;;;4786502;29;20141;-76
2020/12/12 05:50:40;;;;;;;11.27;4.00;;;9.80;99.90;;;;;;4784726;29;20031;-77
2020/12/12 05:53:06;;;;;;;6.88;3.88;;;9.80;99.90;;;;;;4784269;29;20093;-76
2020/12/12 05:55:34;;;;;;;6.85;3.47;;;9.80;99.90;;;;;;4784541;30;20035;-76
2020/12/12 05:58:01;;;;;;;7.20;3.90;;;9.80;99.90;;;;;;4795570;29;20047;-77
2020/12/12 06:00:29;;;;;;;7.40;3.80;;;9.80;99.90;;;;;;4802387;29;20078;-77
2020/12/12 06:03:05;;;;;;;6.80;3.45;;;9.80;99.90;;;;;;4802509;29;20050;-76
2020/12/12 06:05:33;;;;;;;8.50;4.55;;;9.90;99.90;;;;;;4800355;29;20041;-77
2020/12/12 06:08:04;;;;;;;6.07;3.72;;;9.90;99.90;;;;;;4793062;29;20050;-76
2020/12/12 06:10:32;;;;;;;10.07;4.32;;;9.90;99.90;;;;;;4791032;29;20512;-76
2020/12/12 06:13:03;;;;;;;13.25;4.72;;;9.90;99.90;;;;;;4802116;29;20038;-76
2020/12/12 06:15:34;;;;;;;7.68;4.15;;;9.90;99.90;;;;;;4802355;29;20046;-79
2020/12/12 06:18:19;;;;;;;6.13;3.95;;;10.00;99.90;;;;;;4802285;29;20054;-81
2020/12/12 06:20:45;;;;;;;6.25;4.50;;;10.00;99.90;;;;;;4796708;29;20451;-76
2020/12/12 06:23:12;;;;;;;7.15;4.18;;;10.10;99.90;;;;;;4784275;29;20497;-81
2020/12/12 06:25:38;;;;;;;7.35;3.97;;;10.00;99.90;;;;;;4784217;29;20509;-76
2020/12/12 06:28:07;;;;;;;6.35;4.22;;;10.10;99.90;;;;;;4790753;29;20541;-76
2020/12/12 06:30:33;;;;;;;8.57;4.07;;;10.10;99.90;;;;;;4800405;29;20118;-76
2020/12/12 06:33:03;;;;;;;6.70;3.83;;;10.10;99.90;;;;;;4784120;29;20050;-76
2020/12/12 06:35:33;;;;;;;9.90;4.40;;;10.10;99.90;;;;;;4783973;29;20464;-77
2020/12/12 06:38:20;;;;;;;8.63;3.88;;;10.10;99.90;;;;;;4783857;29;20082;-77
2020/12/12 06:40:47;;;;;;;7.15;4.10;;;10.20;99.90;;;;;;4784153;29;20031;-76
2020/12/12 06:43:37;;;;;;;7.55;3.78;;;10.20;99.90;;;;;;4801753;29;20034;-77
2020/12/12 06:46:05;;;;;;;11.25;6.05;;;10.20;99.90;;;;;;4780851;29;20639;-78
2020/12/12 06:48:32;;;;;;;9.73;5.72;;;10.20;99.90;;;;;;4784936;29;20398;-76
2020/12/12 06:51:00;;;;;;;10.60;5.22;;;10.20;99.90;;;;;;4784064;29;20110;-77
2020/12/12 06:53:29;;;;;;;9.77;4.20;;;10.20;99.90;;;;;;4783926;29;20102;-77
2020/12/12 06:56:14;;;;;;;7.10;4.10;;;10.10;99.90;;;;;;4783846;29;20032;-77
2020/12/12 06:58:43;;;;;;;16.92;5.80;;;10.00;99.90;;;;;;4798011;29;20043;-77
2020/12/12 07:01:27;;;;;;;5.15;3.15;;;10.10;99.90;;;;;;4800175;29;20035;-76
2020/12/12 07:04:04;;;;;;;5.80;3.17;;;10.10;99.90;;;;;;4801785;29;20041;-76
2020/12/12 07:06:32;;;;;;;10.00;4.07;;;10.00;99.90;;;;;;4801674;29;20035;-81
2020/12/12 07:09:07;;;;;;;7.43;3.42;;;10.00;99.90;;;;;;4788158;29;20035;-78
2020/12/12 07:11:34;;;;;;;20.40;9.80;;;9.90;99.90;;;;;;4783663;30;20039;-76
2020/12/12 07:14:01;;;;;;;10.93;6.40;;;9.90;99.90;;;;;;4783494;29;20475;-75
2020/12/12 07:16:28;;;;;;;8.25;4.55;;;9.80;99.90;;;;;;4783632;30;20387;-76
2020/12/12 07:18:54;;;;;;;6.32;3.72;;;9.80;99.90;;;;;;4793850;29;20068;-78
2020/12/12 07:21:21;;;;;;;8.43;3.53;;;9.80;99.90;;;;;;4785377;29;20065;-76
2020/12/12 07:23:48;;;;;;;6.38;3.60;;;9.70;99.90;;;;;;4785460;29;20034;-78
2020/12/12 07:26:15;;;;;;;9.20;4.10;;;9.80;99.90;;;;;;4801681;29;20537;-76
2020/12/12 07:28:41;;;;;;;5.38;3.08;;;9.80;99.90;;;;;;4800917;29;20027;-76
2020/12/12 07:31:07;;;;;;;6.55;3.63;;;9.80;99.90;;;;;;4801416;29;20045;-77
2020/12/12 07:33:34;;;;;;;6.50;3.65;;;9.80;99.90;;;;;;4801442;29;20038;-77
2020/12/12 07:36:00;;;;;;;10.23;4.70;;;9.90;99.90;;;;;;4801104;29;20050;-76
2020/12/12 07:38:27;;;;;;;5.63;3.40;;;9.90;99.90;;;;;;4799485;29;20043;-76
2020/12/12 07:40:54;;;;;;;7.10;3.83;;;9.90;99.90;;;;;;4784157;29;20028;-76
2020/12/12 07:43:20;;;;;;;8.98;3.20;;;10.00;99.90;;;;;;4783319;29;20062;-76
2020/12/12 07:48:22;;;;;;;6.82;3.97;;;10.20;99.90;;;;;;4786536;29;20038;-78
2020/12/12 07:50:48;;;;;;;6.25;3.40;;;10.30;99.90;;;;;;4786841;29;20122;-81
2020/12/12 07:53:16;;;;;;;7.70;4.00;;;10.40;99.90;;;;;;4802816;29;20039;-76
2020/12/12 07:55:51;;;;;;;6.05;3.20;;;10.40;99.90;;;;;;4804689;29;20185;-78
2020/12/12 07:58:26;;;;;;;13.30;5.90;;;10.30;99.90;;;;;;4803681;29;20049;-77
2020/12/12 08:00:56;;;;;;;9.00;4.93;;;10.30;99.90;;;;;;4800309;29;20054;-78
2020/12/12 08:03:22;;;;;;;11.18;4.72;;;10.40;99.90;;;;;;4797930;29;20284;-76
2020/12/12 08:05:49;;;;;;;14.30;6.22;;;10.40;99.90;;;;;;4804419;29;20038;-77
2020/12/12 08:08:15;;;;;;;9.82;5.43;;;10.50;99.90;;;;;;4803990;29;20030;-78
2020/12/12 08:10:41;;;;;;;16.60;7.10;;;10.60;99.90;;;;;;4787915;29;20035;-77
2020/12/12 08:13:08;;;;;;;15.48;7.82;;;10.70;99.90;;;;;;4798515;29;20456;-77
2020/12/12 08:15:42;;;;;;;13.40;4.38;;;10.80;99.90;;;;;;4786106;29;20031;-79
2020/12/12 08:18:14;;;;;;;7.00;3.17;;;10.90;99.90;;;;;;4785797;29;20082;-78
2020/12/12 08:20:41;;;;;;;6.03;3.03;;;11.00;99.90;;;;;;4786293;29;20035;-77
2020/12/12 08:23:13;;;;;;;11.70;4.57;;;11.00;99.90;;;;;;4788532;29;20501;-76
2020/12/12 08:25:40;;;;;;;9.50;2.97;;;11.10;99.90;;;;;;4803971;29;20037;-78
2020/12/12 08:28:06;;;;;;;6.63;4.10;;;11.10;99.90;;;;;;4804098;29;20027;-75
2020/12/12 08:30:33;;;;;;;6.53;3.65;;;11.10;99.90;;;;;;4804056;29;20034;-80
2020/12/12 08:33:12;;;;;;;7.93;3.65;;;11.30;99.90;;;;;;4804002;29;20039;-79
2020/12/12 08:35:39;;;;;;;10.05;5.20;;;11.40;99.90;;;;;;4785767;29;20402;-77
2020/12/12 08:38:10;;;;;;;13.95;7.10;;;11.40;99.90;;;;;;4769510;30;20384;-80
2020/12/12 08:40:44;;;;;;;14.82;6.75;;;11.40;99.90;;;;;;4785685;29;20050;-78
2020/12/12 08:43:12;;;;;;;16.53;8.27;;;11.50;99.90;;;;;;4785526;29;20120;-81
2020/12/12 08:45:41;;;;;;;8.80;4.82;;;11.50;99.90;;;;;;4794683;29;20288;-77
2020/12/12 08:48:11;;;;;;;12.85;5.55;;;11.50;99.90;;;;;;4794240;29;20034;-77
2020/12/12 08:50:59;;;;;;;10.25;5.30;;;11.50;99.90;;;;;;4803283;29;20383;-77
2020/12/12 08:53:37;;;;;;;8.95;4.72;;;11.50;99.90;;;;;;4784931;29;20043;-77
2020/12/12 08:56:11;;;;;;;17.80;8.85;;;11.50;99.90;;;;;;4784532;29;20039;-77
2020/12/12 08:58:40;;;;;;;5.28;3.25;;;11.50;99.90;;;;;;4785203;29;20419;-76
2020/12/12 09:01:17;;;;;;;6.45;3.40;;;11.50;99.90;;;;;;4784944;29;20268;-77
2020/12/12 09:04:03;;;;;;;8.10;3.80;;;11.50;99.90;;;;;;4789450;29;20399;-76
2020/12/12 09:06:47;;;;;;;7.93;3.83;;;11.50;99.90;;;;;;4802258;29;20486;-77
2020/12/12 09:09:18;;;;;;;5.65;3.45;;;11.60;99.90;;;;;;4787022;29;20050;-76
2020/12/12 09:11:47;;;;;;;7.30;4.00;;;11.60;99.90;;;;;;4803101;29;20034;-76
2020/12/12 09:14:15;;;;;;;4.90;3.45;;;11.70;99.90;;;;;;4802728;29;20023;-78
2020/12/12 09:16:56;;;;;;;9.35;4.80;;;11.60;99.90;;;;;;4789243;29;20047;-76
2020/12/12 09:19:27;;;;;;;7.88;4.35;;;11.60;99.90;;;;;;4784579;29;20041;-76
2020/12/12 09:21:54;;;;;;;7.43;3.75;;;11.50;99.90;;;;;;4784601;29;20039;-77
2020/12/12 09:24:22;;;;;;;7.45;4.38;;;11.50;99.90;;;;;;4784618;29;20070;-77
2020/12/12 09:26:50;;;;;;;7.70;4.45;;;11.60;99.90;;;;;;4795286;29;20042;-75
2020/12/12 09:29:17;;;;;;;8.35;5.25;;;11.60;99.90;;;;;;4786617;29;20058;-80
2020/12/12 09:31:43;;;;;;;8.30;5.07;;;11.60;99.90;;;;;;4802603;29;20457;-76
2020/12/12 09:34:09;;;;;;;9.07;4.88;;;11.70;99.90;;;;;;4802214;29;20062;-76
2020/12/12 09:36:35;;;;;;;8.05;3.92;;;11.80;99.90;;;;;;4801789;29;20070;-76
2020/12/12 09:39:03;;;;;;;13.02;6.55;;;11.80;99.90;;;;;;4802266;29;20081;-76
2020/12/12 09:41:29;;;;;;;11.50;7.18;;;11.90;99.90;;;;;;4784008;29;20486;-77
2020/12/12 09:43:56;;;;;;;12.80;5.68;;;11.80;99.90;;;;;;4802328;29;20575;-76
2020/12/12 09:46:22;;;;;;;9.73;4.90;;;11.80;99.90;;;;;;4802236;29;20041;-76
2020/12/12 09:48:48;;;;;;;15.80;6.55;;;11.70;99.90;;;;;;4802555;29;20079;-76
2020/12/12 09:51:17;;;;;;;12.40;6.35;;;11.70;99.90;;;;;;4801593;29;20031;-76
2020/12/12 09:53:47;;;;;;;11.95;7.18;;;11.60;99.90;;;;;;4796321;29;20240;-78
2020/12/12 09:56:15;;;;;;;15.27;6.32;;;11.70;99.90;;;;;;4801408;29;20058;-76
2020/12/12 09:58:42;;;;;;;12.20;7.32;;;11.80;99.90;;;;;;4801474;29;20026;-76
2020/12/12 10:01:09;;;;;;;14.93;6.47;;;11.90;99.90;;;;;;4801218;29;20095;-75
2020/12/12 10:03:35;;;;;;;9.23;4.85;;;11.90;99.90;;;;;;4797980;29;20426;-76
2020/12/12 10:06:01;;;;;;;8.98;3.80;;;12.00;99.90;;;;;;4782479;30;20043;-76
2020/12/12 10:08:27;;;;;;;7.95;5.22;;;12.00;99.90;;;;;;4782010;29;20216;-76
2020/12/12 10:10:54;;;;;;;7.60;4.47;;;12.00;99.90;;;;;;4784149;29;20039;-76
2020/12/12 10:13:20;;;;;;;9.80;5.25;;;12.00;99.90;;;;;;4802113;29;20035;-76
2020/12/12 10:15:49;;;;;;;11.23;6.22;;;12.00;99.90;;;;;;4799987;29;20477;-76
2020/12/12 10:18:16;;;;;;;8.27;5.32;;;12.00;99.90;;;;;;4784124;29;20043;-76
2020/12/12 10:20:42;;;;;;;10.38;5.78;;;12.00;99.90;;;;;;4801240;29;20038;-78
2020/12/12 10:23:08;;;;;;;9.52;5.70;;;12.00;99.90;;;;;;4802111;29;20405;-77
2020/12/12 10:25:35;;;;;;;11.07;5.53;;;12.10;99.90;;;;;;4802259;29;20446;-76
2020/12/12 10:28:01;;;;;;;7.80;5.38;;;12.20;99.90;;;;;;4802214;29;20031;-76
2020/12/12 10:30:27;;;;;;;7.78;4.82;;;12.20;99.90;;;;;;4773486;30;20513;-78
2020/12/12 10:32:53;;;;;;;19.17;7.20;;;12.20;99.90;;;;;;4791487;29;20031;-76
2020/12/12 10:35:19;;;;;;;15.48;6.97;;;12.30;99.90;;;;;;4802036;29;20047;-77
2020/12/12 10:37:45;;;;;;;9.25;5.28;;;12.40;99.90;;;;;;4801972;29;20096;-75
2020/12/12 10:40:20;;;;;;;13.27;5.70;;;12.40;99.90;;;;;;4793770;29;20057;-75
2020/12/12 10:42:46;;;;;;;10.32;5.90;;;12.40;99.90;;;;;;4784220;29;20051;-76
2020/12/12 10:45:12;;;;;;;11.30;5.72;;;12.40;99.90;;;;;;4783885;29;20122;-76
2020/12/12 10:47:39;;;;;;;11.85;5.88;;;12.50;99.90;;;;;;4783885;29;20248;-78
2020/12/12 10:50:07;;;;;;;12.63;8.02;;;12.60;99.90;;;;;;4787880;29;20045;-77
2020/12/12 10:52:34;;;;;;;11.05;6.68;;;12.60;99.90;;;;;;4801637;29;20117;-77
2020/12/12 10:55:01;;;;;;;12.05;7.30;;;12.80;99.90;;;;;;4801781;29;20023;-79
2020/12/12 10:57:27;;;;;;;14.98;5.88;;;12.80;99.90;;;;;;4801593;29;20046;-78
2020/12/12 10:59:53;;;;;;;12.55;4.75;;;12.90;99.90;;;;;;4801867;29;20100;-75
2020/12/12 11:02:19;;;;;;;13.90;5.63;;;12.90;99.90;;;;;;4783817;29;20043;-76
2020/12/12 11:04:46;;;;;;;13.13;5.45;;;13.00;99.90;;;;;;4784096;29;20092;-76
2020/12/12 11:07:12;;;;;;;12.18;5.82;;;13.00;99.90;;;;;;4783635;29;20031;-76
2020/12/12 11:09:39;;;;;;;10.75;6.85;;;13.10;99.90;;;;;;4786507;29;20475;-76
2020/12/12 11:12:07;;;;;;;9.02;4.55;;;13.30;99.90;;;;;;4795202;29;20122;-76
2020/12/12 11:14:35;;;;;;;11.98;5.78;;;13.30;99.90;;;;;;4801156;29;20027;-76
2020/12/12 11:17:03;;;;;;;7.50;4.82;;;13.30;99.90;;;;;;4801331;29;20031;-75
2020/12/12 11:19:29;;;;;;;10.32;4.25;;;13.30;99.90;;;;;;4802182;29;20031;-75
2020/12/12 11:21:57;;;;;;;10.43;4.60;;;13.50;99.90;;;;;;4804952;29;20035;-77
2020/12/12 11:24:23;;;;;;;7.43;3.67;;;13.60;99.90;;;;;;4789554;29;20062;-77
2020/12/12 11:26:52;;;;;;;9.32;3.95;;;13.60;99.90;;;;;;4790299;29;20027;-77
2020/12/12 11:29:19;;;;;;;9.05;3.55;;;13.80;99.90;;;;;;4804641;29;20031;-76
2020/12/12 11:31:49;;;;;;;11.93;3.83;;;14.00;99.90;;;;;;4805201;29;20027;-78
2020/12/12 11:42:28;;;;;;;7.53;3.83;;;14.70;99.90;;;;;;4770526;30;20039;-76
2020/12/12 11:47:25;;;;;;;8.60;2.80;;;14.90;99.90;;;;;;4802548;29;20144;-76
2020/12/12 11:49:53;;;;;;;6.20;2.85;;;15.00;99.90;;;;;;4804592;29;20027;-76
2020/12/12 11:52:19;;;;;;;3.58;1.85;;;15.00;99.90;;;;;;4804543;29;20031;-76
2020/12/12 11:54:45;;;;;;;7.88;2.08;;;15.00;99.90;;;;;;4804925;29;20038;-78
2020/12/12 11:57:11;;;;;;;4.47;2.42;;;15.00;99.90;;;;;;4793968;29;20051;-76
2020/12/12 11:59:37;;;;;;;4.35;2.40;;;14.90;99.90;;;;;;4786086;29;20034;-76
2020/12/12 12:02:05;;;;;;;4.93;2.30;;;15.00;99.90;;;;;;4802628;29;20076;-79
2020/12/12 12:04:31;;;;;;;3.85;2.90;;;15.00;99.90;;;;;;4788397;29;20502;-76
2020/12/12 12:06:58;;;;;;;6.43;2.63;;;15.10;99.90;;;;;;4803838;29;20076;-77
2020/12/12 12:09:37;;;;;;;8.93;2.00;;;15.10;99.90;;;;;;4788305;29;20473;-77
2020/12/12 12:12:04;;;;;;;6.78;2.78;;;15.00;99.90;;;;;;4787886;29;20391;-77
2020/12/12 12:14:30;;;;;;;7.25;2.30;;;15.20;99.90;;;;;;4804449;29;20029;-76
2020/12/12 12:16:56;;;;;;;5.70;2.80;;;15.40;99.90;;;;;;4800882;29;20063;-76
2020/12/12 12:19:23;;;;;;;4.78;2.88;;;15.20;99.90;;;;;;4785999;29;20031;-76
2020/12/12 12:21:50;;;;;;;7.95;2.50;;;15.00;99.90;;;;;;4785967;30;20114;-76
2020/12/12 12:24:17;;;;;;;5.70;3.13;;;14.90;99.90;;;;;;4786102;29;20032;-76
2020/12/12 12:26:44;;;;;;;8.40;2.90;;;14.80;99.90;;;;;;4786252;29;20543;-79
2020/12/12 12:29:13;;;;;;;3.67;2.30;;;14.70;99.90;;;;;;4803109;29;20033;-79
2020/12/12 12:31:43;;;;;;;4.75;2.45;;;14.50;99.90;;;;;;4803878;29;20153;-79
2020/12/12 12:34:09;;;;;;;5.80;2.88;;;14.70;99.90;;;;;;4803662;29;20030;-78
2020/12/12 12:36:38;;;;;;;4.00;2.63;;;14.80;99.90;;;;;;4803823;29;20035;-80
2020/12/12 12:39:06;;;;;;;4.45;2.80;;;14.90;99.90;;;;;;4790302;29;20435;-76
2020/12/12 12:41:33;;;;;;;4.80;3.00;;;15.00;99.90;;;;;;4803902;29;20533;-76
2020/12/12 12:44:03;;;;;;;4.57;2.40;;;15.10;99.90;;;;;;4803466;29;20487;-79
2020/12/12 12:46:30;;;;;;;4.53;3.15;;;15.20;99.90;;;;;;4803532;29;20042;-76
2020/12/12 12:48:57;;;;;;;6.03;3.40;;;15.30;99.90;;;;;;4802969;29;20479;-77
2020/12/12 12:51:23;;;;;;;11.00;4.68;;;15.40;99.90;;;;;;4803606;29;20043;-76
2020/12/12 12:53:49;;;;;;;6.43;4.32;;;15.50;99.90;;;;;;4803534;29;20035;-76
2020/12/12 12:56:25;;;;;;;6.50;4.35;;;15.70;99.90;;;;;;4803748;29;20483;-78
2020/12/12 12:58:53;;;;;;;6.45;4.47;;;15.80;99.90;;;;;;4795959;29;20062;-75
2020/12/12 13:01:21;;;;;;;6.88;3.90;;;15.80;99.90;;;;;;4784878;29;20053;-76
2020/12/12 13:03:48;;;;;;;7.85;4.63;;;15.50;99.90;;;;;;4785578;30;20085;-77
2020/12/12 13:06:34;;;;;;;8.60;4.63;;;15.40;99.90;;;;;;4785379;30;20066;-77